Mc Clellan Airfield
KMCC : now visible

Airfield :











YOU CAN JOIN US ON...

 
LOGIN :

Register | Disclaimer

   EN    FR    IT 

 









Legend :    VFR   Marginal VFR   IFR   Intensive IFR   Very Intensive IFR
Visi :
Ceiling :
>= 8 km
>= 3000ft
5 to 8 km
1000 to 3000 ft
1500m to 5 km
500 to 1000 ft
800 to 1500m
200 to 500 ft
< 800m
< 200 ft
Symbols :   Thunderstorms  Fog  Heavy snow  Heavy precipitations  Wind > 20 kt






- Airport Elevation : 77 ft


KMCC - Mc Clellan

CURRENT METAR :
  • 131635Z AUTO 19011KT 10SM CLR 26/12 A2986 RMK AO2 PWINO

EXPIRED METARs :
  • 131615Z AUTO 17007KT 10SM CLR 24/12 A2985 RMK AO2 PWINO
  • 131555Z AUTO 21008KT 10SM CLR 24/12 A2984 RMK AO2 PWINO
  • 131535Z AUTO 19011KT 10SM CLR 24/12 A2984 RMK AO2 PWINO
  • 131515Z AUTO 18012G19KT 10SM CLR 24/12 A2983 RMK AO2 PWINO
  • 131455Z AUTO 18010G15KT 10SM CLR 25/12 A2982 RMK AO2 PWINO
  • 131435Z AUTO 07003KT 10SM CLR 24/12 A2979 RMK AO2 PWINO
  • 131415Z AUTO 14008KT 10SM CLR 23/12 A2981 RMK AO2 PWINO
  • 131355Z AUTO 12010KT 10SM CLR 23/12 A2980 RMK AO2 PWINO
  • 131335Z AUTO 14008G15KT 10SM CLR 23/12 A2980 RMK AO2 PWINO
  • 131315Z AUTO 14007KT 10SM CLR 22/12 A2978 RMK AO2 PWINO
  • 131255Z AUTO 17007KT 10SM CLR 22/12 A2979 RMK AO2 PWINO
  • 131235Z AUTO 18008KT 10SM CLR 23/12 A2979 RMK AO2 PWINO
  • 131215Z AUTO 16012KT 10SM CLR 23/12 A2977 RMK AO2 PWINO
  • 131155Z AUTO 16009KT 10SM CLR 23/12 A2975 RMK AO2 PWINO

TAF KMCC
Valid from the 13 at 12:00 until the 14 at 12:00 UTC


131120Z 1312/1412 20009KT P6SM BKN200
FM132300 18012G19KT P6SM BKN200
KZOA FIR / North America



MET'MAP, your aeronautical weather chart ! - Copyright ORBIFLY December 2007 - Disclaimer

ORBIFLY MET'MAP TEAM :

Programming & Development : Alexandra Zaïnal
Original concept : Baudouin d'Aumeries
Technical & hardware support : Manuel Goepfert
Assistance : Marc-Olivier Méhu




SOURCES & CREDITS :

   NOAA       Earth
Advisory